Time;durP1;ratioP1;P1;durP2;ratioP2;P2;SDS_P1;SDS_P2;PMS_P1;PMS_P2;Temp;Humidity;BMP_temperature;BMP_pressure;BME280_temperature;BME280_humidity;BME280_pressure;Samples;Min_cycle;Max_cycle;Signal;HPM_P1;HPM_P2
2022/03/20 00:00:37;;;;;;;42.00;12.93;;;12.30;69.20;;;;;;5011790;28;20632;-76
2022/03/20 00:03:07;;;;;;;39.92;14.07;;;12.30;69.20;;;;;;5011690;28;20029;-77
2022/03/20 00:05:40;;;;;;;31.98;13.10;;;12.30;69.30;;;;;;5011562;28;20164;-74
2022/03/20 00:08:11;;;;;;;41.83;14.15;;;12.30;69.30;;;;;;5010223;28;20029;-77
2022/03/20 00:10:37;;;;;;;34.60;13.73;;;12.30;69.30;;;;;;5010516;28;20030;-75
2022/03/20 00:13:10;;;;;;;26.35;13.77;;;12.30;69.30;;;;;;5011633;28;20018;-77
2022/03/20 00:15:40;;;;;;;24.33;12.80;;;12.30;69.30;;;;;;5010275;28;20018;-77
2022/03/20 00:18:09;;;;;;;19.63;12.65;;;12.30;69.30;;;;;;5011123;28;20018;-76
2022/03/20 00:20:37;;;;;;;22.38;12.55;;;12.30;69.30;;;;;;5010351;28;20089;-79
2022/03/20 00:23:07;;;;;;;20.98;12.68;;;12.30;69.30;;;;;;5010230;28;20018;-77
2022/03/20 00:25:34;;;;;;;24.02;12.43;;;12.30;69.30;;;;;;5010482;28;20017;-77
2022/03/20 00:28:02;;;;;;;20.70;12.75;;;12.30;69.30;;;;;;5010769;28;20018;-76
2022/03/20 00:30:27;;;;;;;24.23;12.10;;;12.30;69.30;;;;;;5011425;28;20873;-80
2022/03/20 00:32:53;;;;;;;22.10;13.25;;;12.30;69.40;;;;;;5009802;28;20065;-76
2022/03/20 00:35:18;;;;;;;50.50;14.05;;;12.30;69.30;;;;;;5010077;28;20033;-76
2022/03/20 00:37:44;;;;;;;30.20;12.63;;;12.20;69.30;;;;;;5010702;28;20028;-76
2022/03/20 00:40:10;;;;;;;44.17;14.73;;;12.30;69.30;;;;;;5009792;28;20660;-77
2022/03/20 00:42:35;;;;;;;28.48;12.80;;;12.30;69.40;;;;;;5010688;28;20037;-76
2022/03/20 00:45:01;;;;;;;26.83;12.32;;;12.20;69.30;;;;;;5011032;28;20030;-76
2022/03/20 00:47:26;;;;;;;36.90;13.55;;;12.30;69.40;;;;;;5009452;28;21149;-76
2022/03/20 00:49:52;;;;;;;46.47;13.65;;;12.20;69.30;;;;;;5009678;28;20076;-78
2022/03/20 00:52:17;;;;;;;29.58;13.60;;;12.30;69.40;;;;;;5009245;28;20026;-76
2022/03/20 00:54:43;;;;;;;36.17;13.85;;;12.20;69.30;;;;;;5009563;28;20076;-77
2022/03/20 00:57:08;;;;;;;33.15;13.05;;;12.20;69.50;;;;;;5009139;28;20026;-75
2022/03/20 00:59:33;;;;;;;66.50;15.68;;;12.30;69.50;;;;;;5009329;28;20036;-75
2022/03/20 01:01:59;;;;;;;72.90;16.20;;;12.20;69.40;;;;;;5010605;28;20041;-76
2022/03/20 01:04:25;;;;;;;66.18;16.27;;;12.20;69.40;;;;;;5009094;28;20479;-76
2022/03/20 01:06:55;;;;;;;438.23;41.47;;;12.30;69.60;;;;;;5010517;28;20053;-78
2022/03/20 01:09:22;;;;;;;127.03;17.60;;;12.30;69.80;;;;;;5010253;28;20026;-78
2022/03/20 01:11:47;;;;;;;239.38;23.95;;;12.20;69.80;;;;;;5009925;28;20033;-76
2022/03/20 01:14:13;;;;;;;66.55;14.27;;;12.20;69.70;;;;;;5009142;28;20072;-77
2022/03/20 01:16:39;;;;;;;46.40;13.73;;;12.20;69.70;;;;;;5008967;28;20021;-76
2022/03/20 01:19:04;;;;;;;53.20;14.68;;;12.20;69.70;;;;;;5008548;28;20098;-76
2022/03/20 01:21:31;;;;;;;243.18;25.75;;;12.30;69.60;;;;;;5009876;28;20029;-77
2022/03/20 01:23:56;;;;;;;48.88;13.65;;;12.20;69.60;;;;;;5009851;28;20108;-76
2022/03/20 01:26:23;;;;;;;102.03;17.35;;;12.20;69.40;;;;;;5010001;28;20129;-75
2022/03/20 01:28:48;;;;;;;61.20;15.35;;;12.20;69.20;;;;;;5008430;28;20108;-76
2022/03/20 01:31:14;;;;;;;45.38;13.63;;;12.30;69.20;;;;;;5009727;28;20598;-76
2022/03/20 01:33:41;;;;;;;39.47;13.25;;;12.20;69.00;;;;;;5009878;28;20022;-77
2022/03/20 01:36:06;;;;;;;63.03;15.23;;;12.30;69.10;;;;;;5008461;28;20112;-77
2022/03/20 01:38:32;;;;;;;42.47;13.75;;;12.20;69.10;;;;;;5008136;28;20136;-76
2022/03/20 01:41:00;;;;;;;30.77;13.00;;;12.20;68.90;;;;;;5008566;28;20071;-76
2022/03/20 01:43:25;;;;;;;30.33;13.75;;;12.20;68.90;;;;;;5009739;28;20388;-76
2022/03/20 01:45:51;;;;;;;25.27;13.30;;;12.20;68.70;;;;;;5008393;28;20026;-75
2022/03/20 01:48:17;;;;;;;36.92;12.85;;;12.20;68.60;;;;;;5008231;28;20040;-77
2022/03/20 01:50:43;;;;;;;43.00;13.38;;;12.20;68.60;;;;;;5009186;28;20026;-80
2022/03/20 01:53:09;;;;;;;46.75;14.60;;;12.20;68.60;;;;;;5008909;28;20120;-77
2022/03/20 01:55:34;;;;;;;32.50;13.02;;;12.20;68.50;;;;;;5007996;28;20033;-75
2022/03/20 01:58:00;;;;;;;37.97;13.75;;;12.20;68.60;;;;;;5007841;28;20432;-76
2022/03/20 02:00:27;;;;;;;35.63;13.40;;;12.20;68.50;;;;;;5007855;28;20026;-77
2022/03/20 02:02:54;;;;;;;32.45;12.80;;;12.20;68.50;;;;;;5008047;28;20029;-77
2022/03/20 02:05:21;;;;;;;66.82;15.00;;;12.30;68.60;;;;;;5008160;28;20507;-76
2022/03/20 02:07:47;;;;;;;38.90;14.38;;;12.20;68.60;;;;;;5007905;28;20026;-77
2022/03/20 02:10:13;;;;;;;44.47;13.95;;;12.20;68.60;;;;;;5008079;28;20053;-77
2022/03/20 02:12:39;;;;;;;103.72;18.95;;;12.20;68.60;;;;;;5009022;28;20033;-79
2022/03/20 02:15:09;;;;;;;190.70;21.85;;;12.20;68.70;;;;;;5007856;28;20018;-77
2022/03/20 02:17:35;;;;;;;48.63;13.88;;;12.20;68.70;;;;;;5007623;28;20510;-76
2022/03/20 02:20:05;;;;;;;31.35;12.43;;;12.20;68.60;;;;;;5007810;28;20124;-79
2022/03/20 02:22:32;;;;;;;51.55;14.13;;;12.20;68.60;;;;;;5009010;28;20044;-78
2022/03/20 02:25:04;;;;;;;35.20;13.45;;;12.20;68.60;;;;;;5007827;28;20037;-75
2022/03/20 02:27:32;;;;;;;28.30;12.57;;;12.20;68.60;;;;;;5008844;28;20442;-77
2022/03/20 02:29:59;;;;;;;53.30;13.38;;;12.20;68.50;;;;;;5007899;28;20178;-76
2022/03/20 02:32:27;;;;;;;40.83;13.50;;;12.20;68.50;;;;;;5008786;28;20076;-76
2022/03/20 02:34:58;;;;;;;113.20;20.23;;;12.20;68.50;;;;;;5007623;28;20025;-77
2022/03/20 02:37:25;;;;;;;135.48;19.25;;;12.20;68.50;;;;;;5007421;28;20112;-77
2022/03/20 02:39:57;;;;;;;60.03;16.35;;;12.20;68.60;;;;;;5007813;28;20088;-75
2022/03/20 02:42:23;;;;;;;43.45;14.38;;;12.20;68.50;;;;;;5008696;28;20036;-76
2022/03/20 02:45:02;;;;;;;39.63;13.30;;;12.20;68.40;;;;;;5007707;28;20026;-77
2022/03/20 02:47:30;;;;;;;32.95;13.18;;;12.20;68.40;;;;;;5007071;28;20065;-79
2022/03/20 02:49:58;;;;;;;30.77;12.23;;;12.20;68.40;;;;;;5008760;28;20026;-76
2022/03/20 02:52:29;;;;;;;33.38;12.35;;;12.20;68.30;;;;;;5007399;28;20116;-78
2022/03/20 02:55:00;;;;;;;33.80;12.73;;;12.20;68.30;;;;;;5007634;28;20487;-76
2022/03/20 02:57:25;;;;;;;23.42;12.43;;;12.20;68.20;;;;;;5007047;28;20455;-76
2022/03/20 02:59:51;;;;;;;26.92;12.85;;;12.10;68.10;;;;;;5007372;28;20068;-79
2022/03/20 03:02:16;;;;;;;24.98;11.88;;;12.20;68.10;;;;;;5007561;28;20053;-78
2022/03/20 03:04:42;;;;;;;25.65;12.40;;;12.20;68.10;;;;;;5010914;28;20120;-77
2022/03/20 03:07:08;;;;;;;26.05;12.82;;;12.20;68.10;;;;;;5011154;28;20391;-77
2022/03/20 03:12:18;;;;;;;24.58;12.93;;;12.20;68.00;;;;;;5012780;28;20121;-76
2022/03/20 03:17:28;;;;;;;22.95;12.52;;;12.10;68.00;;;;;;5011955;28;20112;-76
2022/03/20 03:19:55;;;;;;;22.52;12.27;;;12.10;68.10;;;;;;5012389;28;20077;-76
2022/03/20 03:22:21;;;;;;;21.67;12.27;;;12.10;68.10;;;;;;5011198;28;20036;-77
2022/03/20 03:24:46;;;;;;;32.35;13.02;;;12.10;68.10;;;;;;5011099;28;20053;-77
2022/03/20 03:27:12;;;;;;;90.00;16.15;;;12.10;68.20;;;;;;5012067;28;20025;-77
2022/03/20 03:29:37;;;;;;;34.53;12.75;;;12.10;68.30;;;;;;5012509;28;20402;-77
2022/03/20 03:32:05;;;;;;;23.40;11.80;;;12.20;68.50;;;;;;5010873;28;20026;-76
2022/03/20 03:37:18;;;;;;;20.17;12.05;;;12.10;68.30;;;;;;5012272;28;20087;-78
2022/03/20 03:39:44;;;;;;;22.25;12.55;;;12.20;68.30;;;;;;5010672;28;20113;-80
2022/03/20 03:42:10;;;;;;;31.15;12.88;;;12.20;68.30;;;;;;5007280;28;20697;-79
2022/03/20 03:44:36;;;;;;;75.88;15.55;;;12.10;68.40;;;;;;5011096;28;20072;-78
2022/03/20 03:47:01;;;;;;;32.67;13.98;;;12.10;68.50;;;;;;5010455;28;20030;-76
2022/03/20 03:49:27;;;;;;;35.65;12.60;;;12.10;68.30;;;;;;5010286;28;20025;-78
2022/03/20 03:51:53;;;;;;;22.27;12.40;;;12.10;68.50;;;;;;5010611;28;20116;-77
2022/03/20 03:54:19;;;;;;;86.90;14.82;;;12.10;68.20;;;;;;5011514;28;20018;-79
2022/03/20 03:56:45;;;;;;;38.08;12.48;;;12.10;68.30;;;;;;5010378;28;20032;-77
2022/03/20 03:59:11;;;;;;;23.95;12.07;;;12.10;68.30;;;;;;5009976;28;20038;-76
2022/03/20 04:01:36;;;;;;;68.80;16.02;;;12.10;68.30;;;;;;5011649;28;20026;-80
2022/03/20 04:04:02;;;;;;;64.55;14.73;;;12.10;68.50;;;;;;5009816;28;20033;-76
2022/03/20 04:06:28;;;;;;;83.85;17.42;;;12.10;68.40;;;;;;5011564;28;20026;-78
2022/03/20 04:08:54;;;;;;;30.55;13.70;;;12.10;68.40;;;;;;5009587;28;20484;-80
2022/03/20 04:11:20;;;;;;;20.40;12.23;;;12.10;68.30;;;;;;5010163;28;20395;-79
2022/03/20 04:13:46;;;;;;;20.88;12.68;;;12.10;68.20;;;;;;5010738;28;20041;-77
2022/03/20 04:16:11;;;;;;;28.55;13.35;;;12.10;68.20;;;;;;5010144;28;20048;-77
2022/03/20 04:18:37;;;;;;;22.85;12.48;;;12.10;68.20;;;;;;5009722;28;20032;-76
2022/03/20 04:21:04;;;;;;;16.48;11.13;;;12.10;68.10;;;;;;5009872;28;20025;-78
2022/03/20 04:23:49;;;;;;;18.67;12.30;;;12.10;68.00;;;;;;5010077;28;20022;-79
2022/03/20 04:26:20;;;;;;;24.52;12.75;;;12.10;68.10;;;;;;5011110;28;20022;-78
2022/03/20 04:28:46;;;;;;;20.05;12.02;;;12.10;68.10;;;;;;5009657;28;20168;-77
2022/03/20 04:31:15;;;;;;;34.92;13.90;;;12.10;68.10;;;;;;5011014;28;20767;-76
2022/03/20 04:33:51;;;;;;;23.10;12.55;;;12.10;68.20;;;;;;5011283;28;20030;-78
2022/03/20 04:36:21;;;;;;;19.65;12.25;;;12.10;68.20;;;;;;5009908;28;20027;-79
2022/03/20 04:38:46;;;;;;;20.60;12.13;;;12.00;68.10;;;;;;5010710;28;20074;-77
2022/03/20 04:41:12;;;;;;;20.02;12.68;;;12.00;68.10;;;;;;5009853;28;20100;-78
2022/03/20 04:43:37;;;;;;;16.45;11.90;;;12.00;68.00;;;;;;5011151;28;20026;-77
2022/03/20 04:46:02;;;;;;;20.42;12.70;;;12.00;67.80;;;;;;5009829;28;20311;-77
2022/03/20 04:59:26;;;;;;;28.95;12.60;;;12.10;67.50;;;;;;5010929;28;20160;-78
2022/03/20 05:01:51;;;;;;;22.92;12.73;;;12.00;67.50;;;;;;5010553;28;20053;-78
2022/03/20 05:04:17;;;;;;;27.77;12.90;;;12.10;67.60;;;;;;5010508;28;20033;-76
2022/03/20 05:06:43;;;;;;;22.77;12.00;;;12.00;67.60;;;;;;5009134;28;20080;-78
2022/03/20 05:14:37;;;;;;;20.83;12.43;;;12.00;67.60;;;;;;5011085;28;20043;-77
2022/03/20 05:17:07;;;;;;;18.40;12.25;;;12.00;67.50;;;;;;5010096;28;20018;-76
2022/03/20 05:19:34;;;;;;;20.88;12.70;;;12.00;67.40;;;;;;5008921;28;20045;-80
2022/03/20 05:21:59;;;;;;;24.40;12.93;;;12.00;67.30;;;;;;5009171;28;20164;-79
2022/03/20 05:24:25;;;;;;;17.40;12.65;;;12.00;67.30;;;;;;5010176;28;20104;-79
2022/03/20 05:26:50;;;;;;;17.15;12.75;;;12.00;67.20;;;;;;5008209;28;20032;-77
2022/03/20 05:29:15;;;;;;;17.13;12.15;;;12.00;67.20;;;;;;5009698;28;20136;-77
2022/03/20 05:31:41;;;;;;;21.92;12.90;;;12.00;67.10;;;;;;5008630;28;20639;-77
2022/03/20 05:34:07;;;;;;;18.67;12.60;;;12.00;67.10;;;;;;5010228;28;20021;-77
2022/03/20 05:36:32;;;;;;;17.95;12.60;;;12.00;67.20;;;;;;5010176;28;20018;-78
2022/03/20 05:38:59;;;;;;;19.75;13.15;;;12.00;67.20;;;;;;5008926;28;20025;-78
2022/03/20 05:44:11;;;;;;;17.38;12.80;;;12.00;67.10;;;;;;5007529;28;20037;-78
2022/03/20 05:46:37;;;;;;;16.95;12.38;;;12.00;67.10;;;;;;5012669;28;20033;-78
2022/03/20 05:49:03;;;;;;;18.17;13.45;;;12.00;67.00;;;;;;5022314;28;20495;-78
2022/03/20 05:51:30;;;;;;;16.17;12.52;;;12.00;67.10;;;;;;5007866;28;20068;-78
2022/03/20 05:53:56;;;;;;;18.40;13.13;;;12.00;67.10;;;;;;5009350;28;20025;-78
2022/03/20 05:59:06;;;;;;;18.90;13.32;;;12.00;67.00;;;;;;5009693;28;20032;-76
2022/03/20 06:01:31;;;;;;;18.17;12.07;;;12.00;66.90;;;;;;5008015;28;20026;-78
2022/03/20 06:03:57;;;;;;;16.00;12.98;;;12.00;66.90;;;;;;5009509;28;20060;-78
2022/03/20 06:06:23;;;;;;;18.27;13.10;;;12.00;66.90;;;;;;5008248;28;20030;-78
2022/03/20 06:08:49;;;;;;;16.58;12.80;;;11.90;66.80;;;;;;5009124;28;20025;-77
2022/03/20 06:11:15;;;;;;;16.27;12.73;;;12.00;66.70;;;;;;5007702;28;20116;-77
2022/03/20 06:13:41;;;;;;;18.08;12.93;;;12.00;66.70;;;;;;5007952;28;20450;-78
2022/03/20 06:16:08;;;;;;;16.88;13.20;;;12.00;66.60;;;;;;5007879;28;20025;-79
2022/03/20 06:18:34;;;;;;;17.30;12.70;;;12.00;66.60;;;;;;5007619;28;20156;-80
2022/03/20 06:21:00;;;;;;;17.27;13.27;;;12.00;66.50;;;;;;5008034;28;20121;-78
2022/03/20 06:23:27;;;;;;;16.92;13.90;;;12.00;66.50;;;;;;5009190;28;20022;-76
2022/03/20 06:25:52;;;;;;;16.60;13.18;;;12.00;66.30;;;;;;5008159;28;20049;-78
2022/03/20 06:28:19;;;;;;;19.60;13.73;;;12.00;66.30;;;;;;5007350;28;20022;-80
2022/03/20 06:30:45;;;;;;;16.63;12.48;;;12.10;66.30;;;;;;5007565;28;20045;-77
2022/03/20 06:33:10;;;;;;;16.98;13.02;;;12.10;66.30;;;;;;5007293;28;20034;-77
2022/03/20 06:35:36;;;;;;;17.48;13.57;;;12.10;66.30;;;;;;5009020;28;20030;-78
2022/03/20 06:38:02;;;;;;;18.48;13.75;;;12.10;66.20;;;;;;5007244;28;20022;-78
2022/03/20 06:40:28;;;;;;;17.95;13.73;;;12.10;66.20;;;;;;5007840;28;20113;-76
2022/03/20 06:42:53;;;;;;;17.85;13.02;;;12.10;66.20;;;;;;5007450;28;20168;-77
2022/03/20 06:45:20;;;;;;;16.70;13.27;;;12.10;66.20;;;;;;5011333;28;20034;-77
2022/03/20 06:47:46;;;;;;;17.48;13.63;;;12.10;66.20;;;;;;5010697;28;20538;-78
2022/03/20 06:50:13;;;;;;;16.83;12.75;;;12.10;66.20;;;;;;5009969;28;20090;-76
2022/03/20 06:52:39;;;;;;;16.95;13.32;;;12.10;66.20;;;;;;5010068;28;20034;-75
2022/03/20 06:55:06;;;;;;;16.70;13.68;;;12.10;66.20;;;;;;5010084;28;20041;-76
2022/03/20 06:57:32;;;;;;;16.20;12.98;;;12.10;66.20;;;;;;5010831;28;20666;-75
2022/03/20 06:59:59;;;;;;;17.50;13.25;;;12.20;66.40;;;;;;5008519;28;20022;-75
2022/03/20 07:02:25;;;;;;;17.58;14.18;;;12.20;66.40;;;;;;5008720;28;20028;-75
2022/03/20 07:04:51;;;;;;;17.63;13.55;;;12.20;66.40;;;;;;5007380;28;20394;-75
2022/03/20 07:07:22;;;;;;;17.30;13.60;;;12.10;66.30;;;;;;5008492;28;20255;-76
2022/03/20 07:09:48;;;;;;;18.58;14.07;;;12.20;66.40;;;;;;5008813;28;20363;-75
2022/03/20 07:12:14;;;;;;;18.50;13.38;;;12.30;66.50;;;;;;5007447;28;20133;-77
2022/03/20 07:14:40;;;;;;;16.48;13.60;;;12.30;66.70;;;;;;5008602;28;20018;-76
2022/03/20 07:17:12;;;;;;;17.60;13.45;;;12.30;66.70;;;;;;5007298;28;20014;-76
2022/03/20 07:19:39;;;;;;;16.90;14.18;;;12.30;66.80;;;;;;5007337;28;20119;-77
2022/03/20 07:22:05;;;;;;;18.35;13.48;;;12.30;67.00;;;;;;5007752;28;20030;-76
2022/03/20 07:24:34;;;;;;;16.90;13.60;;;12.20;67.00;;;;;;5007622;28;20913;-79
2022/03/20 07:29:45;;;;;;;18.83;14.18;;;12.20;67.00;;;;;;4994810;28;20437;-77
2022/03/20 07:32:10;;;;;;;16.58;13.40;;;12.20;66.90;;;;;;5007868;28;20049;-77
2022/03/20 07:34:39;;;;;;;16.75;13.52;;;12.20;66.70;;;;;;5007608;28;20041;-77
2022/03/20 07:37:05;;;;;;;18.00;14.18;;;12.20;66.40;;;;;;5007454;28;20022;-76
2022/03/20 07:39:32;;;;;;;19.70;14.88;;;12.20;66.30;;;;;;5008822;28;20018;-77
2022/03/20 07:41:58;;;;;;;18.38;14.63;;;12.20;66.20;;;;;;5007694;28;20024;-76
2022/03/20 07:44:25;;;;;;;18.17;14.60;;;12.30;66.10;;;;;;5007570;28;20113;-76
2022/03/20 07:46:54;;;;;;;19.85;14.85;;;12.30;66.10;;;;;;5007734;28;20026;-78
2022/03/20 07:49:20;;;;;;;17.98;14.95;;;12.40;66.30;;;;;;5008227;28;20050;-80
2022/03/20 07:51:46;;;;;;;18.42;14.63;;;12.40;66.00;;;;;;5011916;28;20034;-76
2022/03/20 07:54:12;;;;;;;17.08;13.90;;;12.40;65.60;;;;;;5012271;28;20052;-80
2022/03/20 07:56:38;;;;;;;20.13;15.02;;;12.50;66.10;;;;;;5011950;28;20022;-78
2022/03/20 07:59:07;;;;;;;18.15;14.27;;;12.50;65.70;;;;;;5010543;28;20033;-76
2022/03/20 08:01:33;;;;;;;17.42;14.00;;;12.50;65.50;;;;;;5011851;28;20064;-75
2022/03/20 08:04:00;;;;;;;20.42;15.13;;;12.50;65.10;;;;;;5010433;28;20029;-77
2022/03/20 08:06:26;;;;;;;19.08;14.98;;;12.60;65.00;;;;;;5010665;28;20080;-80
2022/03/20 08:08:52;;;;;;;17.75;14.57;;;12.60;64.80;;;;;;5012325;28;20437;-80
2022/03/20 08:11:18;;;;;;;18.17;14.35;;;12.60;65.00;;;;;;5011192;28;20083;-80
2022/03/20 08:13:44;;;;;;;18.50;14.50;;;12.60;64.60;;;;;;5011043;28;20105;-79
2022/03/20 08:16:16;;;;;;;20.20;15.40;;;12.60;64.90;;;;;;5010496;28;20113;-81
2022/03/20 08:18:43;;;;;;;17.40;13.52;;;12.80;64.90;;;;;;5011842;28;20033;-77
2022/03/20 08:21:12;;;;;;;18.83;14.73;;;12.70;64.60;;;;;;5010842;28;20060;-77
2022/03/20 08:23:39;;;;;;;18.45;14.60;;;12.70;65.00;;;;;;5011199;28;20038;-76
2022/03/20 08:26:08;;;;;;;17.20;14.50;;;12.70;65.20;;;;;;5010829;28;20034;-78
2022/03/20 08:28:37;;;;;;;18.40;14.68;;;12.70;64.30;;;;;;5010844;28;20030;-78
2022/03/20 08:31:03;;;;;;;17.73;14.35;;;12.70;64.30;;;;;;5012148;28;20022;-78
2022/03/20 08:33:28;;;;;;;18.08;14.48;;;12.70;64.90;;;;;;5011991;28;20022;-79
2022/03/20 08:35:54;;;;;;;17.80;14.60;;;12.80;65.10;;;;;;5010958;28;20113;-79
2022/03/20 08:38:19;;;;;;;16.92;14.15;;;12.80;64.60;;;;;;5011302;28;20029;-76
2022/03/20 08:40:45;;;;;;;19.45;14.50;;;12.80;65.30;;;;;;5012665;28;20022;-77
2022/03/20 08:43:15;;;;;;;17.27;13.93;;;12.80;64.80;;;;;;5013150;28;20482;-79
2022/03/20 08:45:41;;;;;;;18.40;14.52;;;12.80;65.10;;;;;;5009215;28;20033;-77
2022/03/20 08:48:06;;;;;;;18.42;13.95;;;12.80;64.90;;;;;;5010433;28;20026;-78
2022/03/20 08:50:32;;;;;;;18.50;14.48;;;12.80;65.20;;;;;;5011945;28;20028;-79
2022/03/20 08:52:58;;;;;;;18.55;14.57;;;12.80;64.70;;;;;;5011446;28;20061;-78
2022/03/20 08:55:24;;;;;;;20.98;14.35;;;12.90;65.00;;;;;;5012126;28;20148;-78
2022/03/20 08:57:52;;;;;;;18.92;14.60;;;12.90;65.20;;;;;;5011317;28;20018;-78
2022/03/20 09:00:20;;;;;;;18.50;14.13;;;12.90;65.30;;;;;;5009291;28;20026;-79
2022/03/20 09:02:47;;;;;;;18.50;14.85;;;12.90;65.00;;;;;;5009294;28;20061;-78
2022/03/20 09:05:13;;;;;;;19.55;14.88;;;12.90;64.50;;;;;;5009277;28;20030;-77
2022/03/20 09:07:43;;;;;;;19.95;15.15;;;12.90;63.70;;;;;;5008055;28;20454;-80
2022/03/20 09:10:09;;;;;;;19.35;14.65;;;13.00;63.60;;;;;;5008723;28;20060;-76
2022/03/20 09:12:37;;;;;;;18.52;14.82;;;13.00;63.30;;;;;;5010361;28;20030;-77
2022/03/20 09:15:04;;;;;;;21.92;16.45;;;13.00;63.00;;;;;;5008780;28;20021;-77
2022/03/20 09:20:17;;;;;;;19.05;15.70;;;13.00;63.00;;;;;;5010367;28;20095;-77
2022/03/20 09:22:43;;;;;;;22.65;15.82;;;13.10;63.00;;;;;;5009000;28;20030;-81
2022/03/20 09:25:09;;;;;;;19.63;15.15;;;13.00;63.10;;;;;;5008746;28;20084;-78
2022/03/20 09:27:35;;;;;;;18.92;15.05;;;13.10;63.00;;;;;;5008914;28;20026;-77
2022/03/20 09:30:01;;;;;;;20.90;16.48;;;13.10;63.10;;;;;;5008642;28;20714;-77
2022/03/20 09:32:27;;;;;;;19.63;15.65;;;12.90;62.90;;;;;;5008459;28;20030;-77
2022/03/20 09:34:52;;;;;;;19.70;15.52;;;13.10;62.90;;;;;;5008613;28;20018;-77
2022/03/20 09:37:18;;;;;;;19.17;15.18;;;13.10;62.90;;;;;;5008278;28;20022;-77
2022/03/20 09:39:43;;;;;;;23.08;15.80;;;13.10;62.80;;;;;;5008655;28;20014;-78
2022/03/20 09:42:09;;;;;;;20.52;16.25;;;13.10;62.80;;;;;;5008840;28;20022;-80
2022/03/20 09:44:39;;;;;;;19.63;15.23;;;13.10;62.60;;;;;;5008289;28;20125;-77
2022/03/20 09:47:09;;;;;;;19.35;15.35;;;13.00;62.50;;;;;;5008956;28;20121;-79
2022/03/20 09:49:35;;;;;;;19.42;15.60;;;13.10;62.50;;;;;;5008703;28;20033;-80
2022/03/20 09:52:01;;;;;;;19.80;16.05;;;13.20;62.60;;;;;;5008827;28;20029;-79
2022/03/20 09:54:26;;;;;;;19.77;15.30;;;13.20;62.70;;;;;;5009896;28;20044;-78
2022/03/20 09:56:53;;;;;;;20.00;16.30;;;13.30;62.70;;;;;;5009051;28;20647;-79
2022/03/20 09:59:19;;;;;;;19.33;15.70;;;13.10;62.80;;;;;;5004460;28;20468;-76
2022/03/20 10:01:44;;;;;;;19.60;15.25;;;13.20;62.60;;;;;;5007479;28;20029;-77
2022/03/20 10:04:18;;;;;;;21.23;16.15;;;13.20;62.60;;;;;;5010868;28;20030;-78
2022/03/20 10:06:44;;;;;;;20.50;15.40;;;13.20;62.70;;;;;;5010026;28;20030;-79
2022/03/20 10:09:15;;;;;;;20.65;15.43;;;13.20;62.80;;;;;;5008215;28;20018;-77
2022/03/20 10:11:51;;;;;;;19.38;15.07;;;13.20;62.80;;;;;;5009247;28;20849;-77
2022/03/20 10:14:18;;;;;;;22.13;15.73;;;13.20;62.60;;;;;;5008589;28;20030;-77
2022/03/20 10:16:50;;;;;;;20.42;15.65;;;13.20;62.70;;;;;;5009270;28;20022;-78
2022/03/20 10:19:22;;;;;;;22.98;15.50;;;13.20;62.70;;;;;;5007366;28;20076;-77
2022/03/20 10:21:50;;;;;;;21.50;15.73;;;13.30;62.70;;;;;;5008163;28;20036;-77
2022/03/20 10:24:17;;;;;;;21.73;15.73;;;13.30;62.60;;;;;;5007936;28;20036;-79
2022/03/20 10:26:44;;;;;;;18.92;15.00;;;13.20;62.70;;;;;;5008713;28;20077;-78
2022/03/20 10:29:17;;;;;;;19.58;15.55;;;13.30;62.60;;;;;;5007425;28;20554;-79
2022/03/20 10:31:50;;;;;;;19.73;15.68;;;13.30;63.00;;;;;;5008976;28;20080;-77
2022/03/20 10:34:17;;;;;;;19.08;15.02;;;13.30;63.00;;;;;;5007940;28;20029;-77
2022/03/20 10:36:43;;;;;;;20.08;15.77;;;13.30;63.10;;;;;;5007338;28;20022;-77
2022/03/20 10:39:19;;;;;;;20.02;15.75;;;13.30;62.80;;;;;;5007544;28;20026;-77
2022/03/20 10:41:49;;;;;;;21.55;15.65;;;13.30;62.90;;;;;;5008281;28;20116;-76
2022/03/20 10:44:25;;;;;;;19.45;14.70;;;13.30;62.70;;;;;;5007011;28;20025;-76
2022/03/20 10:46:58;;;;;;;19.48;15.20;;;13.30;62.80;;;;;;5007272;28;20056;-77
2022/03/20 10:49:25;;;;;;;18.00;14.68;;;13.30;62.70;;;;;;5006927;28;20171;-70
2022/03/20 10:52:11;;;;;;;19.20;14.52;;;13.30;62.50;;;;;;5006011;28;20029;-72
2022/03/20 10:54:51;;;;;;;19.35;15.15;;;13.30;62.50;;;;;;5006142;28;20018;-73
2022/03/20 10:57:17;;;;;;;20.67;15.23;;;13.30;62.30;;;;;;4997029;28;20022;-73
2022/03/20 10:59:55;;;;;;;21.73;15.30;;;13.30;62.70;;;;;;5003936;28;20022;-72
2022/03/20 11:02:23;;;;;;;24.75;16.50;;;13.40;62.40;;;;;;5005839;28;20046;-72
2022/03/20 11:04:49;;;;;;;23.98;15.52;;;13.40;62.30;;;;;;5002982;28;20515;-75
2022/03/20 11:07:17;;;;;;;19.77;14.60;;;13.50;62.40;;;;;;5001868;28;20127;-73
2022/03/20 11:09:50;;;;;;;22.10;14.60;;;13.50;62.40;;;;;;5009686;28;20072;-70
2022/03/20 11:12:22;;;;;;;37.78;17.02;;;13.50;62.40;;;;;;5010988;28;20030;-70
2022/03/20 11:14:48;;;;;;;30.33;17.05;;;13.50;59.50;;;;;;5010408;28;20026;-71
2022/03/20 11:17:17;;;;;;;29.23;17.23;;;13.40;57.90;;;;;;5008896;28;20145;-70
2022/03/20 11:19:49;;;;;;;23.45;16.42;;;13.50;59.40;;;;;;5010357;28;20030;-71
2022/03/20 11:22:19;;;;;;;26.90;16.88;;;13.50;59.70;;;;;;5011414;28;20030;-72
2022/03/20 11:24:47;;;;;;;21.92;16.17;;;13.40;60.00;;;;;;5012336;28;20018;-71
2022/03/20 11:27:21;;;;;;;28.23;17.83;;;13.50;60.10;;;;;;5013470;28;20029;-71
2022/03/20 11:29:55;;;;;;;22.25;15.82;;;13.50;60.40;;;;;;5015252;28;20037;-72
2022/03/20 11:32:21;;;;;;;20.50;15.60;;;13.50;60.60;;;;;;5015171;28;20690;-71
2022/03/20 11:34:48;;;;;;;23.20;17.10;;;13.40;60.70;;;;;;5015168;28;20494;-71
2022/03/20 11:37:15;;;;;;;23.67;16.75;;;13.50;60.80;;;;;;5013284;28;20171;-72
2022/03/20 11:40:11;;;;;;;21.55;16.02;;;13.50;60.80;;;;;;5015156;28;20022;-71
2022/03/20 11:42:38;;;;;;;23.25;16.30;;;13.50;60.80;;;;;;5015026;28;20025;-71
2022/03/20 11:45:04;;;;;;;20.30;16.05;;;13.40;60.80;;;;;;5013633;28;20033;-70
2022/03/20 11:47:31;;;;;;;24.42;16.88;;;13.40;61.10;;;;;;5013330;28;20026;-72
2022/03/20 11:50:27;;;;;;;22.30;16.02;;;13.30;61.00;;;;;;5013385;28;20049;-72
2022/03/20 11:53:00;;;;;;;23.30;16.33;;;13.40;61.20;;;;;;5002184;28;20129;-71
2022/03/20 11:55:33;;;;;;;20.65;15.10;;;13.50;61.30;;;;;;5013502;28;20084;-72
2022/03/20 11:58:24;;;;;;;20.65;16.27;;;13.40;61.30;;;;;;5014427;28;20022;-71
2022/03/20 12:01:02;;;;;;;23.00;16.52;;;13.40;61.30;;;;;;5006084;28;20050;-72
2022/03/20 12:03:50;;;;;;;20.58;16.33;;;13.40;61.30;;;;;;5013458;28;20052;-72
2022/03/20 12:06:37;;;;;;;19.45;15.32;;;13.40;61.30;;;;;;5014462;28;20146;-72
2022/03/20 12:09:09;;;;;;;21.90;15.93;;;13.40;61.30;;;;;;5014244;28;20022;-71
2022/03/20 12:11:57;;;;;;;20.02;16.20;;;13.50;61.40;;;;;;5014563;28;20018;-72
2022/03/20 12:14:40;;;;;;;21.50;16.10;;;13.40;61.30;;;;;;5013094;28;20022;-71
2022/03/20 12:17:07;;;;;;;19.05;15.70;;;13.50;61.40;;;;;;5012727;28;20061;-72
2022/03/20 12:19:38;;;;;;;21.27;15.90;;;13.40;61.50;;;;;;5014171;28;20026;-72
2022/03/20 12:22:15;;;;;;;20.57;16.20;;;13.40;61.30;;;;;;5014208;28;20124;-71
2022/03/20 12:24:54;;;;;;;22.17;16.40;;;13.40;61.50;;;;;;5014306;28;20627;-72
2022/03/20 12:27:20;;;;;;;19.23;15.27;;;13.40;61.50;;;;;;5012588;28;20025;-71
2022/03/20 12:30:04;;;;;;;20.65;15.77;;;13.40;61.60;;;;;;5014078;28;20026;-72
2022/03/20 12:32:52;;;;;;;19.83;15.65;;;13.40;61.60;;;;;;5014098;28;20105;-72
2022/03/20 12:35:25;;;;;;;19.52;15.13;;;13.40;61.80;;;;;;5013720;28;20484;-71
2022/03/20 12:37:53;;;;;;;18.58;15.10;;;13.30;61.80;;;;;;5012480;28;20034;-72
2022/03/20 12:40:26;;;;;;;19.42;15.88;;;13.40;61.90;;;;;;5012624;28;20033;-71
2022/03/20 12:43:08;;;;;;;17.75;14.75;;;13.30;61.80;;;;;;5013980;28;20406;-71
2022/03/20 12:45:40;;;;;;;18.02;14.55;;;13.40;62.10;;;;;;5013863;28;20025;-72
2022/03/20 12:48:10;;;;;;;19.40;15.02;;;13.40;62.10;;;;;;5013431;28;20032;-72
2022/03/20 12:50:38;;;;;;;17.65;14.48;;;13.40;62.10;;;;;;5012423;28;20030;-72
2022/03/20 12:53:09;;;;;;;19.70;14.90;;;13.40;62.30;;;;;;5012262;28;20642;-71
2022/03/20 12:55:38;;;;;;;19.35;14.65;;;13.40;62.20;;;;;;5012396;28;20053;-72
2022/03/20 12:58:06;;;;;;;20.92;15.07;;;13.40;62.20;;;;;;5013241;28;20479;-71
2022/03/20 13:00:33;;;;;;;18.20;14.82;;;13.40;62.30;;;;;;5012211;28;20038;-71
2022/03/20 13:03:10;;;;;;;18.15;15.00;;;13.40;62.40;;;;;;5012222;28;20095;-71
2022/03/20 13:05:35;;;;;;;17.45;14.35;;;13.40;62.40;;;;;;5013423;28;20034;-72